Time;durP1;ratioP1;P1;durP2;ratioP2;P2;SDS_P1;SDS_P2;PMS_P1;PMS_P2;Temp;Humidity;BMP_temperature;BMP_pressure;BME280_temperature;BME280_humidity;BME280_pressure;Samples;Min_cycle;Max_cycle;Signal;HPM_P1;HPM_P2
2024/04/02 00:00:41;;;;;;;13.30;7.70;;;8.30;99.90;;;;;;5112199;27;20049;-86
2024/04/02 00:03:08;;;;;;;8.85;6.03;;;8.00;99.90;;;;;;5127009;27;20047;-86
2024/04/02 00:05:35;;;;;;;12.38;7.97;;;8.00;99.90;;;;;;5102345;28;20040;-86
2024/04/02 00:08:05;;;;;;;12.35;7.82;;;8.00;99.90;;;;;;5097535;28;20047;-87
2024/04/02 00:10:32;;;;;;;15.30;8.45;;;8.00;99.90;;;;;;5114079;27;20051;-86
2024/04/02 00:12:58;;;;;;;13.75;8.52;;;8.00;99.90;;;;;;5124749;27;20043;-87
2024/04/02 00:15:24;;;;;;;15.60;9.05;;;8.20;99.90;;;;;;5110228;27;20044;-86
2024/04/02 00:17:51;;;;;;;16.30;9.40;;;8.00;99.90;;;;;;5107256;27;20040;-86
2024/04/02 00:20:17;;;;;;;13.20;7.95;;;8.20;99.90;;;;;;5108005;28;20043;-86
2024/04/02 00:22:43;;;;;;;14.52;8.25;;;7.90;99.90;;;;;;5109111;27;20714;-87
2024/04/02 00:25:09;;;;;;;19.50;9.18;;;7.90;99.90;;;;;;5094216;28;20536;-86
2024/04/02 00:27:34;;;;;;;18.38;8.88;;;7.90;99.90;;;;;;5114689;27;20041;-87
2024/04/02 00:30:00;;;;;;;13.15;8.65;;;7.90;99.90;;;;;;5120808;27;20496;-86
2024/04/02 00:32:26;;;;;;;12.88;8.52;;;7.90;99.90;;;;;;5121271;27;20459;-86
2024/04/02 00:34:51;;;;;;;14.70;9.65;;;7.90;99.90;;;;;;5116900;27;20043;-87
2024/04/02 00:37:17;;;;;;;13.90;8.00;;;7.80;99.90;;;;;;5102855;27;20047;-87
2024/04/02 00:39:44;;;;;;;15.57;9.10;;;7.80;99.90;;;;;;5127159;27;20073;-87
2024/04/02 00:42:10;;;;;;;14.82;9.00;;;7.80;99.90;;;;;;5114126;27;20052;-85
2024/04/02 00:44:35;;;;;;;13.20;9.20;;;7.80;99.90;;;;;;5114555;27;20103;-87
2024/04/02 00:47:02;;;;;;;13.23;7.88;;;7.80;99.90;;;;;;5093826;28;20050;-84
2024/04/02 00:49:29;;;;;;;14.35;9.70;;;7.80;99.90;;;;;;5107259;28;20108;-87
2024/04/02 00:51:55;;;;;;;17.17;9.50;;;7.80;99.90;;;;;;5107022;28;20541;-87
2024/04/02 00:54:21;;;;;;;13.63;9.27;;;7.80;99.90;;;;;;5124918;27;20083;-87
2024/04/02 00:56:47;;;;;;;16.45;9.45;;;7.80;99.90;;;;;;5114158;27;20127;-88
2024/04/02 00:59:13;;;;;;;14.68;8.90;;;7.70;99.90;;;;;;5123248;27;20785;-87
2024/04/02 01:01:39;;;;;;;10.90;7.35;;;7.70;99.90;;;;;;5128000;27;20047;-83
2024/04/02 01:04:06;;;;;;;13.40;8.65;;;7.70;99.90;;;;;;5108023;27;20085;-87
2024/04/02 01:06:32;;;;;;;17.48;9.73;;;7.70;99.90;;;;;;5105108;27;20043;-87
2024/04/02 01:08:58;;;;;;;15.27;10.02;;;7.70;99.90;;;;;;5128192;27;20382;-87
2024/04/02 01:11:26;;;;;;;16.75;9.80;;;7.70;99.90;;;;;;5109475;27;20054;-86
2024/04/02 01:13:52;;;;;;;18.98;10.25;;;7.90;99.90;;;;;;5103299;27;20056;-88
2024/04/02 01:16:18;;;;;;;14.77;9.27;;;7.60;99.90;;;;;;5088986;28;20051;-87
2024/04/02 01:18:47;;;;;;;15.93;10.25;;;7.70;99.90;;;;;;5107384;28;20492;-86
2024/04/02 01:21:16;;;;;;;19.42;10.57;;;7.70;99.90;;;;;;5089079;27;20066;-87
2024/04/02 01:23:42;;;;;;;19.70;11.13;;;7.60;99.90;;;;;;5089246;28;20127;-86
2024/04/02 01:26:08;;;;;;;15.70;8.90;;;7.60;99.90;;;;;;5091940;28;20763;-88
2024/04/02 01:28:34;;;;;;;15.57;9.60;;;7.60;99.90;;;;;;5107380;28;20041;-88
2024/04/02 01:30:59;;;;;;;18.75;11.30;;;7.60;99.90;;;;;;5099933;28;20050;-88
2024/04/02 01:33:25;;;;;;;14.48;9.65;;;7.60;99.90;;;;;;5095158;28;20171;-87
2024/04/02 01:35:50;;;;;;;20.88;10.82;;;7.50;99.90;;;;;;5072580;28;20081;-87
2024/04/02 01:38:16;;;;;;;19.13;10.35;;;7.70;99.90;;;;;;5089310;28;20074;-88
2024/04/02 01:40:42;;;;;;;17.67;10.98;;;7.60;99.90;;;;;;5089416;28;20086;-88
2024/04/02 01:43:08;;;;;;;17.95;11.23;;;7.50;99.90;;;;;;5103463;28;20047;-88
2024/04/02 01:45:34;;;;;;;17.80;10.40;;;7.50;99.90;;;;;;5098329;28;20159;-87
2024/04/02 01:47:59;;;;;;;18.85;11.95;;;7.50;99.90;;;;;;5093846;28;20794;-86
2024/04/02 01:50:25;;;;;;;18.88;11.65;;;7.50;99.90;;;;;;5099546;27;20043;-88
2024/04/02 01:52:51;;;;;;;20.48;11.90;;;7.50;99.90;;;;;;5113900;27;20044;-86
2024/04/02 01:55:17;;;;;;;20.10;11.60;;;7.50;99.90;;;;;;5111114;27;20414;-87
2024/04/02 01:57:42;;;;;;;18.85;11.48;;;7.50;99.90;;;;;;5113855;27;20047;-88
2024/04/02 02:00:08;;;;;;;19.30;11.70;;;7.90;99.90;;;;;;5111066;28;20035;-88
2024/04/02 02:02:34;;;;;;;20.45;12.40;;;7.50;99.90;;;;;;5116682;27;20051;-87
2024/04/02 02:05:00;;;;;;;19.52;11.88;;;7.50;99.90;;;;;;5107403;28;20095;-88
2024/04/02 02:07:26;;;;;;;21.80;12.40;;;7.50;99.90;;;;;;5104941;27;20043;-87
2024/04/02 02:09:52;;;;;;;21.17;12.40;;;7.50;99.90;;;;;;5117868;28;20130;-87
2024/04/02 02:12:17;;;;;;;20.30;12.88;;;7.60;99.90;;;;;;5119721;27;20044;-85
2024/04/02 02:14:43;;;;;;;20.30;12.13;;;7.60;99.90;;;;;;5105553;28;20070;-88
2024/04/02 02:17:08;;;;;;;21.77;11.65;;;7.60;99.90;;;;;;5111855;27;20111;-85
2024/04/02 02:19:34;;;;;;;19.58;12.32;;;7.60;99.90;;;;;;5109071;28;20047;-88
2024/04/02 02:22:00;;;;;;;20.27;11.68;;;7.60;99.90;;;;;;5117546;27;20484;-87
2024/04/02 02:24:25;;;;;;;21.77;12.23;;;7.60;99.90;;;;;;5110226;28;20059;-87
2024/04/02 02:26:51;;;;;;;18.70;11.63;;;7.70;99.90;;;;;;5100540;28;20035;-88
2024/04/02 02:29:22;;;;;;;18.95;10.43;;;7.70;99.90;;;;;;5115402;27;20046;-87
2024/04/02 02:31:48;;;;;;;16.15;10.23;;;7.70;99.90;;;;;;5088370;28;20821;-87
2024/04/02 02:34:13;;;;;;;17.55;11.63;;;7.70;99.90;;;;;;5110343;28;20133;-86
2024/04/02 02:36:39;;;;;;;18.15;10.93;;;7.70;99.90;;;;;;5094681;27;20054;-87
2024/04/02 02:39:05;;;;;;;19.65;11.40;;;7.70;99.90;;;;;;5093538;28;20067;-88
2024/04/02 02:41:30;;;;;;;18.63;10.45;;;7.80;99.90;;;;;;5092889;28;20416;-87
2024/04/02 02:43:57;;;;;;;16.20;10.52;;;7.80;99.90;;;;;;5091868;28;20063;-88
2024/04/02 02:46:23;;;;;;;19.05;10.07;;;8.20;99.90;;;;;;5084062;28;20143;-87
2024/04/02 02:48:48;;;;;;;15.60;10.35;;;7.70;99.90;;;;;;5092384;27;20047;-87
2024/04/02 02:51:14;;;;;;;15.00;9.20;;;8.00;99.90;;;;;;5114183;27;20072;-87
2024/04/02 02:53:39;;;;;;;17.42;10.13;;;8.10;99.90;;;;;;5097562;28;20067;-86
2024/04/02 02:56:05;;;;;;;15.38;9.80;;;7.70;99.90;;;;;;5122632;27;20047;-88
2024/04/02 02:58:31;;;;;;;16.88;9.80;;;7.70;99.90;;;;;;5116502;27;20039;-88
2024/04/02 03:00:57;;;;;;;18.25;9.27;;;7.70;99.90;;;;;;5109106;28;20172;-88
2024/04/02 03:03:23;;;;;;;14.73;9.18;;;7.70;99.90;;;;;;5080290;28;20059;-88
2024/04/02 03:05:55;;;;;;;18.80;9.65;;;7.70;99.90;;;;;;5105154;28;20503;-88
2024/04/02 03:08:22;;;;;;;16.58;9.32;;;7.70;99.90;;;;;;5096664;28;20164;-88
2024/04/02 03:11:00;;;;;;;14.98;9.20;;;7.70;99.90;;;;;;5097119;28;20046;-88
2024/04/02 03:13:25;;;;;;;15.50;9.27;;;7.70;99.90;;;;;;5109203;27;20041;-87
2024/04/02 03:15:51;;;;;;;13.27;8.20;;;7.70;99.90;;;;;;5096824;28;20048;-88
2024/04/02 03:18:17;;;;;;;15.43;8.70;;;7.60;99.90;;;;;;5096486;28;20131;-87
2024/04/02 03:20:42;;;;;;;13.55;7.65;;;7.80;99.90;;;;;;5104683;28;20059;-88
2024/04/02 03:23:09;;;;;;;13.05;7.45;;;7.80;99.90;;;;;;5095661;28;20048;-88
2024/04/02 03:25:34;;;;;;;13.48;7.55;;;7.60;99.90;;;;;;5103991;28;20075;-88
2024/04/02 03:28:00;;;;;;;11.52;7.70;;;7.50;99.90;;;;;;5100196;28;20109;-87
2024/04/02 03:30:26;;;;;;;15.68;7.78;;;7.50;99.90;;;;;;5092966;28;20109;-88
2024/04/02 03:32:52;;;;;;;13.65;8.30;;;7.50;99.90;;;;;;5104671;28;20476;-88
2024/04/02 03:35:17;;;;;;;18.88;8.73;;;7.60;99.90;;;;;;5101520;28;20054;-88
2024/04/02 03:37:43;;;;;;;14.90;8.30;;;7.50;99.90;;;;;;5106672;28;20069;-88
2024/04/02 03:40:09;;;;;;;13.50;8.02;;;7.50;99.90;;;;;;5102051;28;20078;-88
2024/04/02 03:42:34;;;;;;;14.80;7.93;;;7.40;99.90;;;;;;5090863;28;20048;-86
2024/04/02 03:45:00;;;;;;;14.20;9.07;;;7.40;99.90;;;;;;5087213;28;20047;-87
2024/04/02 03:47:28;;;;;;;12.88;8.18;;;7.40;99.90;;;;;;5088887;28;20075;-88
2024/04/02 03:49:54;;;;;;;12.93;9.05;;;7.40;99.90;;;;;;5092434;28;20132;-88
2024/04/02 03:52:19;;;;;;;13.63;8.13;;;7.40;99.90;;;;;;5107328;28;20137;-88
2024/04/02 03:54:45;;;;;;;12.85;8.52;;;7.40;99.90;;;;;;5092427;28;20455;-86
2024/04/02 03:57:11;;;;;;;12.20;8.55;;;7.40;99.90;;;;;;5107789;28;20047;-88
2024/04/02 03:59:36;;;;;;;17.38;9.38;;;7.30;99.90;;;;;;5089108;28;20091;-88
2024/04/02 04:02:02;;;;;;;15.57;9.13;;;7.30;99.90;;;;;;5099642;28;20047;-87
2024/04/02 04:04:28;;;;;;;14.98;9.30;;;7.30;99.90;;;;;;5089800;28;20817;-88
2024/04/02 04:06:57;;;;;;;14.38;9.50;;;7.30;99.90;;;;;;5102005;28;20055;-86
2024/04/02 04:09:25;;;;;;;15.93;9.10;;;7.30;99.90;;;;;;5089538;28;20374;-88
2024/04/02 04:11:51;;;;;;;13.77;9.10;;;7.30;99.90;;;;;;5102229;28;20040;-86
2024/04/02 04:14:17;;;;;;;16.75;10.23;;;7.30;99.90;;;;;;5094246;28;20073;-87
2024/04/02 04:16:43;;;;;;;12.73;8.52;;;7.30;99.90;;;;;;5096057;28;20055;-88
2024/04/02 04:19:08;;;;;;;16.73;9.73;;;7.30;99.90;;;;;;5111744;27;20039;-88
2024/04/02 04:21:34;;;;;;;14.52;9.30;;;7.20;99.90;;;;;;5093130;27;20158;-88
2024/04/02 04:24:00;;;;;;;14.18;9.48;;;7.20;99.90;;;;;;5104322;27;20100;-88
2024/04/02 04:26:25;;;;;;;17.38;9.57;;;7.20;99.90;;;;;;5103578;27;20055;-89
2024/04/02 04:28:51;;;;;;;16.67;9.60;;;7.40;99.90;;;;;;5111784;27;20047;-88
2024/04/02 04:31:16;;;;;;;15.90;8.52;;;7.20;99.90;;;;;;5102600;27;20108;-88
2024/04/02 04:33:42;;;;;;;17.95;9.60;;;7.10;99.90;;;;;;5091683;28;20083;-90
2024/04/02 04:36:08;;;;;;;13.82;8.18;;;7.10;99.90;;;;;;5091456;28;20039;-87
2024/04/02 04:38:34;;;;;;;14.20;8.52;;;7.20;99.90;;;;;;5109477;28;20047;-86
2024/04/02 04:41:01;;;;;;;13.18;8.82;;;7.10;99.90;;;;;;5112963;27;20116;-88
2024/04/02 04:43:26;;;;;;;15.27;9.25;;;7.10;99.90;;;;;;5109520;27;20662;-88
2024/04/02 04:46:05;;;;;;;16.85;9.45;;;7.10;99.90;;;;;;5106925;27;20055;-89
2024/04/02 04:48:32;;;;;;;14.60;8.57;;;7.10;99.90;;;;;;5127111;27;20086;-88
2024/04/02 04:51:02;;;;;;;13.60;8.50;;;7.20;99.90;;;;;;5099712;28;20043;-87
2024/04/02 04:53:29;;;;;;;15.95;9.20;;;7.00;99.90;;;;;;5106169;28;20052;-88
2024/04/02 04:55:59;;;;;;;15.93;8.50;;;7.00;99.90;;;;;;5095678;28;20043;-88
2024/04/02 04:58:26;;;;;;;13.40;8.43;;;7.00;99.90;;;;;;5103149;27;20111;-88
2024/04/02 05:00:52;;;;;;;13.85;8.68;;;7.00;99.90;;;;;;5116547;27;20142;-89
2024/04/02 05:03:18;;;;;;;14.77;8.48;;;7.00;99.90;;;;;;5104262;27;20086;-90
2024/04/02 05:05:43;;;;;;;16.55;9.32;;;7.00;99.90;;;;;;5104852;27;20130;-87
2024/04/02 05:08:18;;;;;;;11.98;8.20;;;7.00;99.90;;;;;;5114681;27;20058;-84
2024/04/02 05:10:49;;;;;;;13.57;8.40;;;7.20;99.90;;;;;;5117170;27;20051;-87
2024/04/02 05:13:15;;;;;;;11.05;7.47;;;7.00;99.90;;;;;;5110706;27;20057;-87
2024/04/02 05:15:42;;;;;;;12.02;8.10;;;7.00;99.90;;;;;;5099371;28;20091;-87
2024/04/02 05:18:08;;;;;;;14.23;8.13;;;7.00;99.90;;;;;;5111704;27;20055;-87
2024/04/02 05:20:34;;;;;;;12.63;8.00;;;7.00;99.90;;;;;;5094390;27;20071;-87
2024/04/02 05:22:59;;;;;;;13.50;7.63;;;7.00;99.90;;;;;;5109714;27;20092;-86
2024/04/02 05:25:25;;;;;;;13.80;7.63;;;7.00;99.90;;;;;;5099075;27;20035;-87
2024/04/02 05:27:51;;;;;;;13.02;8.40;;;7.00;99.90;;;;;;5114933;27;20036;-88
2024/04/02 05:30:16;;;;;;;12.07;7.80;;;7.00;99.90;;;;;;5103615;27;20420;-87
2024/04/02 05:32:42;;;;;;;11.85;7.55;;;7.00;99.90;;;;;;5092825;28;20797;-87
2024/04/02 05:35:08;;;;;;;12.85;7.38;;;7.00;99.90;;;;;;5105596;28;20048;-87
2024/04/02 05:37:35;;;;;;;12.93;7.85;;;7.10;99.90;;;;;;5093566;28;20041;-87
2024/04/02 05:40:04;;;;;;;12.25;7.97;;;7.00;99.90;;;;;;5093935;28;20047;-88
2024/04/02 05:42:32;;;;;;;12.77;7.97;;;7.00;99.90;;;;;;5124814;28;20053;-87
2024/04/02 05:44:58;;;;;;;12.90;7.60;;;7.10;99.90;;;;;;5095029;28;20084;-88
2024/04/02 05:47:24;;;;;;;12.65;7.65;;;7.20;99.90;;;;;;5094873;28;20055;-87
2024/04/02 05:49:50;;;;;;;12.02;7.57;;;7.10;99.90;;;;;;5098343;28;20035;-87
2024/04/02 05:52:16;;;;;;;11.90;7.15;;;7.10;99.90;;;;;;5097574;28;20122;-88
2024/04/02 05:54:42;;;;;;;12.57;7.53;;;7.10;99.90;;;;;;5107845;28;20097;-84
2024/04/02 05:57:08;;;;;;;10.50;7.30;;;7.10;99.90;;;;;;5083501;28;20048;-82
2024/04/02 05:59:43;;;;;;;12.73;7.13;;;7.10;99.90;;;;;;5109219;28;20651;-86
2024/04/02 06:02:10;;;;;;;10.93;7.00;;;7.10;99.90;;;;;;5087414;28;20176;-83
2024/04/02 06:04:35;;;;;;;13.10;7.10;;;7.10;99.90;;;;;;5088446;28;20051;-83
2024/04/02 06:07:01;;;;;;;13.73;6.95;;;7.20;99.90;;;;;;5086463;28;20040;-84
2024/04/02 06:09:27;;;;;;;11.70;7.25;;;7.20;99.90;;;;;;5087014;28;20055;-84
2024/04/02 06:11:52;;;;;;;12.07;6.97;;;7.20;99.90;;;;;;5093028;28;20051;-84
2024/04/02 06:14:18;;;;;;;11.32;7.78;;;7.20;99.90;;;;;;5086870;28;20524;-84
2024/04/02 06:16:43;;;;;;;11.73;7.32;;;7.30;99.90;;;;;;5082273;28;20113;-83
2024/04/02 06:19:10;;;;;;;10.35;6.88;;;7.30;99.90;;;;;;5091204;28;20083;-84
2024/04/02 06:21:35;;;;;;;12.20;7.20;;;7.30;99.90;;;;;;5098216;28;20126;-84
2024/04/02 06:24:01;;;;;;;12.10;7.40;;;7.40;99.90;;;;;;5090176;28;20859;-85
2024/04/02 06:26:27;;;;;;;13.23;7.90;;;7.40;99.90;;;;;;5090670;28;20052;-86
2024/04/02 06:28:52;;;;;;;13.68;7.78;;;7.40;99.90;;;;;;5094127;28;20601;-87
2024/04/02 06:31:18;;;;;;;13.60;7.07;;;7.40;99.90;;;;;;5089512;28;20834;-85
2024/04/02 06:33:43;;;;;;;12.02;7.85;;;7.50;99.90;;;;;;5092847;28;20036;-85
2024/04/02 06:36:09;;;;;;;10.68;7.00;;;7.50;99.90;;;;;;5087939;28;20557;-85
2024/04/02 06:38:35;;;;;;;13.23;6.93;;;7.50;99.90;;;;;;5080696;28;20039;-86
2024/04/02 06:41:00;;;;;;;12.38;6.75;;;7.60;99.90;;;;;;5099867;28;20492;-85
2024/04/02 06:43:26;;;;;;;11.77;6.85;;;7.60;99.90;;;;;;5098404;28;20126;-85
2024/04/02 06:45:56;;;;;;;12.48;7.55;;;8.00;99.90;;;;;;5099579;28;20052;-86
2024/04/02 06:48:22;;;;;;;13.10;7.72;;;7.90;99.90;;;;;;5095042;28;20051;-84
2024/04/02 06:51:02;;;;;;;12.25;7.35;;;7.70;99.90;;;;;;5086781;28;20071;-86
2024/04/02 06:53:28;;;;;;;13.48;7.10;;;7.70;99.90;;;;;;5102401;28;20686;-86
2024/04/02 06:55:54;;;;;;;12.40;6.82;;;7.80;99.90;;;;;;5092892;28;20056;-86
2024/04/02 06:58:21;;;;;;;12.52;7.57;;;7.80;99.90;;;;;;5108234;28;20044;-84
2024/04/02 07:00:47;;;;;;;12.40;7.07;;;7.80;99.90;;;;;;5100891;28;20040;-86
2024/04/02 07:03:19;;;;;;;11.57;6.93;;;7.90;99.90;;;;;;5091182;28;20093;-87
2024/04/02 07:05:46;;;;;;;11.00;7.30;;;8.20;99.90;;;;;;5101748;28;20047;-88
2024/04/02 07:08:12;;;;;;;11.63;6.60;;;8.30;99.90;;;;;;5090858;28;20051;-87
2024/04/02 07:10:40;;;;;;;14.18;7.38;;;8.00;99.90;;;;;;5088737;27;20146;-86
2024/04/02 07:13:06;;;;;;;11.88;7.28;;;8.00;99.90;;;;;;5086862;28;20470;-86
2024/04/02 07:15:32;;;;;;;12.15;6.75;;;8.10;99.90;;;;;;5089060;28;20044;-87
2024/04/02 07:17:57;;;;;;;12.45;7.43;;;8.40;99.90;;;;;;5096011;28;20579;-87
2024/04/02 07:20:23;;;;;;;14.27;7.20;;;8.40;99.90;;;;;;5092066;28;20055;-86
2024/04/02 07:22:49;;;;;;;12.23;6.80;;;8.30;99.90;;;;;;5106274;28;20102;-85
2024/04/02 07:25:15;;;;;;;13.70;6.57;;;8.30;99.90;;;;;;5096570;28;20105;-87
2024/04/02 07:27:41;;;;;;;10.95;6.72;;;8.40;99.90;;;;;;5094814;28;20398;-87
2024/04/02 07:30:07;;;;;;;12.55;6.18;;;8.50;99.90;;;;;;5094058;28;20040;-87
2024/04/02 07:32:34;;;;;;;10.82;6.55;;;8.60;99.90;;;;;;5093070;28;20094;-85
2024/04/02 07:34:59;;;;;;;15.82;7.25;;;8.70;99.90;;;;;;5102319;28;20062;-86
2024/04/02 07:37:26;;;;;;;10.40;5.90;;;8.70;99.90;;;;;;5090295;28;20044;-87
2024/04/02 07:39:52;;;;;;;10.52;6.50;;;8.80;99.90;;;;;;5097472;28;20052;-87
2024/04/02 07:42:18;;;;;;;9.27;6.00;;;8.80;99.90;;;;;;5087959;28;20405;-86
2024/04/02 07:44:44;;;;;;;11.43;6.28;;;8.90;99.90;;;;;;5086474;28;20040;-87
2024/04/02 07:47:09;;;;;;;11.95;5.80;;;9.30;99.90;;;;;;5090601;28;20051;-85
2024/04/02 07:49:35;;;;;;;10.32;6.18;;;9.00;99.90;;;;;;5101007;28;20039;-87
2024/04/02 07:52:01;;;;;;;11.25;6.10;;;9.00;99.90;;;;;;5105910;28;20052;-87
2024/04/02 07:54:26;;;;;;;12.85;6.40;;;9.10;99.90;;;;;;5093293;28;20043;-88
2024/04/02 07:56:55;;;;;;;10.57;5.80;;;9.10;99.90;;;;;;5106190;28;20829;-86
2024/04/02 07:59:21;;;;;;;10.15;5.28;;;9.30;99.90;;;;;;5105625;28;20039;-87
2024/04/02 08:01:47;;;;;;;9.32;5.53;;;9.30;99.90;;;;;;5088902;28;20042;-85
2024/04/02 08:04:13;;;;;;;10.07;4.95;;;9.40;99.90;;;;;;5093248;28;20055;-88
2024/04/02 08:06:38;;;;;;;9.60;5.38;;;9.80;99.90;;;;;;5089832;28;20048;-86
2024/04/02 08:09:05;;;;;;;9.45;6.15;;;9.50;99.90;;;;;;5093090;28;20067;-87
2024/04/02 08:11:30;;;;;;;10.30;5.22;;;9.60;99.90;;;;;;5096760;28;20469;-88
2024/04/02 08:13:56;;;;;;;10.10;5.82;;;9.60;99.90;;;;;;5097094;28;20059;-86
2024/04/02 08:16:22;;;;;;;10.63;5.82;;;9.60;99.90;;;;;;5100775;28;20085;-86
2024/04/02 08:18:48;;;;;;;11.57;5.38;;;9.60;99.90;;;;;;5099118;27;20051;-87
2024/04/02 08:21:14;;;;;;;14.25;5.47;;;9.70;99.90;;;;;;5088118;28;20043;-87
2024/04/02 08:23:40;;;;;;;12.93;5.85;;;9.70;99.90;;;;;;5092254;28;20047;-88
2024/04/02 08:26:05;;;;;;;11.95;5.72;;;9.80;99.90;;;;;;5087649;27;20051;-87
2024/04/02 08:28:32;;;;;;;10.15;5.78;;;9.80;99.90;;;;;;5096324;27;20044;-87
2024/04/02 08:30:57;;;;;;;12.48;5.47;;;10.00;99.90;;;;;;5102268;28;20044;-86
2024/04/02 08:33:23;;;;;;;11.68;5.78;;;9.90;99.90;;;;;;5101702;28;20482;-86
2024/04/02 08:35:52;;;;;;;10.43;6.20;;;10.20;99.90;;;;;;5080550;28;20047;-88
2024/04/02 08:38:18;;;;;;;8.75;4.85;;;10.00;99.90;;;;;;5092495;27;20035;-87
2024/04/02 08:40:52;;;;;;;8.75;5.50;;;10.40;99.90;;;;;;5112722;27;20138;-89
2024/04/02 08:43:20;;;;;;;10.52;5.70;;;10.10;99.90;;;;;;5098394;27;20044;-87
2024/04/02 08:45:46;;;;;;;13.85;6.68;;;10.10;99.90;;;;;;5087704;28;20430;-89
2024/04/02 08:48:12;;;;;;;12.23;6.05;;;10.60;99.90;;;;;;5088259;28;20122;-87
2024/04/02 08:50:38;;;;;;;9.45;6.03;;;10.20;99.90;;;;;;5092700;27;20075;-87
2024/04/02 08:53:04;;;;;;;10.57;5.85;;;10.20;99.90;;;;;;5098971;27;20043;-89
2024/04/02 08:55:31;;;;;;;10.73;5.70;;;10.20;99.90;;;;;;5093467;27;20117;-88
2024/04/02 08:57:58;;;;;;;15.23;5.75;;;10.20;99.90;;;;;;5096469;28;20086;-88
2024/04/02 09:00:24;;;;;;;10.90;5.38;;;10.40;99.90;;;;;;5089986;27;20035;-86
2024/04/02 09:02:53;;;;;;;12.52;5.93;;;10.40;99.90;;;;;;5082431;28;20084;-86
2024/04/02 09:05:19;;;;;;;11.55;5.50;;;10.20;99.90;;;;;;5089390;27;20043;-85
2024/04/02 09:07:45;;;;;;;14.40;5.55;;;10.30;99.90;;;;;;5101235;27;20065;-88
2024/04/02 09:10:10;;;;;;;10.40;5.18;;;10.40;99.90;;;;;;5110459;27;20047;-87
2024/04/02 09:12:40;;;;;;;11.75;5.05;;;10.60;99.90;;;;;;5107159;27;20047;-87
2024/04/02 09:15:07;;;;;;;11.70;5.38;;;10.50;99.90;;;;;;5108772;27;20770;-88
2024/04/02 09:17:33;;;;;;;10.25;4.50;;;10.60;99.90;;;;;;5110515;27;20059;-88
2024/04/02 09:19:58;;;;;;;12.93;5.57;;;10.70;99.90;;;;;;5100730;28;20047;-87
2024/04/02 09:22:24;;;;;;;9.70;5.35;;;10.90;99.90;;;;;;5089209;27;20463;-87
2024/04/02 09:24:50;;;;;;;13.35;5.45;;;10.70;99.90;;;;;;5081875;28;20074;-87
2024/04/02 09:27:16;;;;;;;11.55;5.55;;;10.90;99.90;;;;;;5089860;28;20040;-85
2024/04/02 09:29:42;;;;;;;12.38;6.10;;;10.90;99.90;;;;;;5098252;28;20439;-88
2024/04/02 09:32:08;;;;;;;15.05;5.63;;;11.00;99.90;;;;;;5087242;28;20108;-89
2024/04/02 09:34:34;;;;;;;12.80;6.53;;;10.90;99.90;;;;;;5110007;27;20050;-88
2024/04/02 09:37:20;;;;;;;12.65;5.60;;;11.00;99.90;;;;;;5092130;28;20047;-88
2024/04/02 09:39:48;;;;;;;15.02;5.72;;;11.00;99.90;;;;;;5094906;28;20047;-88
2024/04/02 09:42:15;;;;;;;14.65;6.10;;;11.20;99.90;;;;;;5087248;28;20122;-87
2024/04/02 09:44:43;;;;;;;14.73;6.10;;;11.20;99.90;;;;;;5091118;28;20057;-88
2024/04/02 09:47:10;;;;;;;14.05;5.68;;;11.20;99.90;;;;;;5093063;28;20152;-87
2024/04/02 09:49:37;;;;;;;10.57;4.68;;;11.20;99.90;;;;;;5112865;28;20062;-89
2024/04/02 09:52:03;;;;;;;12.82;4.97;;;11.30;99.90;;;;;;5087869;28;20181;-87
2024/04/02 09:54:31;;;;;;;11.05;4.13;;;11.40;99.90;;;;;;5088171;28;20044;-87
2024/04/02 09:56:59;;;;;;;11.98;4.63;;;11.50;99.90;;;;;;5093999;28;20859;-89
2024/04/02 09:59:25;;;;;;;10.38;4.88;;;11.50;99.90;;;;;;5088049;28;20131;-88
2024/04/02 10:01:52;;;;;;;13.77;4.97;;;11.60;99.90;;;;;;5110997;28;20400;-90
2024/04/02 10:04:20;;;;;;;15.50;4.45;;;11.60;99.90;;;;;;5086102;28;20059;-89
2024/04/02 10:06:46;;;;;;;13.18;4.22;;;11.60;99.90;;;;;;5104227;27;20154;-88
2024/04/02 10:09:12;;;;;;;11.88;5.07;;;11.50;99.90;;;;;;5105725;27;20480;-87
2024/04/02 10:11:42;;;;;;;13.88;5.20;;;11.50;99.90;;;;;;5098630;28;20043;-88
2024/04/02 10:14:13;;;;;;;14.82;4.82;;;11.40;99.90;;;;;;5102371;27;20064;-87
2024/04/02 10:16:44;;;;;;;14.32;5.28;;;11.40;99.90;;;;;;5092334;28;20043;-85
2024/04/02 10:19:28;;;;;;;14.15;4.78;;;11.50;99.90;;;;;;5096053;28;20083;-84
2024/04/02 10:21:54;;;;;;;10.18;4.70;;;11.60;99.90;;;;;;5103227;28;20130;-86
2024/04/02 10:24:19;;;;;;;11.40;5.60;;;11.60;99.90;;;;;;5107795;28;20044;-86
2024/04/02 10:26:50;;;;;;;11.13;5.40;;;11.60;99.90;;;;;;5106177;28;20040;-86
2024/04/02 10:29:26;;;;;;;11.55;5.20;;;11.60;99.90;;;;;;5108688;28;20050;-87
2024/04/02 10:31:52;;;;;;;14.45;6.07;;;11.60;99.90;;;;;;5091074;28;20047;-87
2024/04/02 10:34:19;;;;;;;14.35;5.32;;;11.60;99.90;;;;;;5098015;28;20530;-89
2024/04/02 10:36:45;;;;;;;12.38;5.00;;;11.60;99.90;;;;;;5098179;28;20044;-90
2024/04/02 10:39:11;;;;;;;11.07;5.25;;;11.60;99.90;;;;;;5078097;28;20062;-88
2024/04/02 10:41:40;;;;;;;14.50;5.88;;;11.60;99.90;;;;;;5100737;28;20044;-89
2024/04/02 10:44:06;;;;;;;13.23;5.72;;;11.70;99.90;;;;;;5095520;28;20051;-88
2024/04/02 10:46:34;;;;;;;14.50;5.93;;;11.70;99.90;;;;;;5089683;28;20044;-89
2024/04/02 10:49:01;;;;;;;12.70;5.82;;;11.70;99.90;;;;;;5096075;28;20134;-88
2024/04/02 10:51:27;;;;;;;14.10;6.35;;;11.70;99.90;;;;;;5104989;28;20521;-88
2024/04/02 10:53:57;;;;;;;11.32;6.53;;;11.80;99.90;;;;;;5101916;28;20086;-86
2024/04/02 10:56:27;;;;;;;18.95;6.65;;;11.90;99.90;;;;;;5094483;28;20063;-89
2024/04/02 10:58:54;;;;;;;17.02;6.25;;;11.90;99.90;;;;;;5089096;28;20064;-90
2024/04/02 11:01:20;;;;;;;11.95;5.55;;;12.00;99.90;;;;;;5090506;28;20642;-88
2024/04/02 11:03:51;;;;;;;14.15;6.43;;;12.10;99.90;;;;;;5092962;28;20063;-87
2024/04/02 11:06:17;;;;;;;10.05;5.40;;;12.00;99.90;;;;;;5090095;28;20130;-89
2024/04/02 11:08:49;;;;;;;14.20;5.75;;;12.10;99.90;;;;;;5090819;28;20082;-89
2024/04/02 11:11:22;;;;;;;15.00;6.57;;;12.10;99.90;;;;;;5091659;28;20162;-89
2024/04/02 11:13:48;;;;;;;10.30;6.45;;;12.10;99.90;;;;;;5088322;28;20043;-89
2024/04/02 11:16:18;;;;;;;13.35;6.72;;;12.20;99.90;;;;;;5094271;28;20036;-87
2024/04/02 11:18:44;;;;;;;18.17;6.07;;;12.20;99.90;;;;;;5101193;27;20058;-89
2024/04/02 11:21:17;;;;;;;12.68;5.88;;;12.30;99.90;;;;;;5102812;27;20043;-90
2024/04/02 11:26:28;;;;;;;11.32;5.88;;;12.40;99.90;;;;;;5091399;28;20071;-94
2024/04/02 11:29:04;;;;;;;10.77;5.45;;;12.40;99.90;;;;;;5098485;27;20039;-88
2024/04/02 11:31:30;;;;;;;13.30;5.00;;;12.50;99.90;;;;;;5096109;28;20051;-88
2024/04/02 11:33:56;;;;;;;9.13;5.32;;;12.50;99.90;;;;;;5088939;28;20055;-90
2024/04/02 11:36:21;;;;;;;12.18;4.72;;;12.50;99.90;;;;;;5091930;27;20077;-88
2024/04/02 11:38:47;;;;;;;7.72;4.13;;;12.60;99.90;;;;;;5081093;27;20046;-88
2024/04/02 11:41:14;;;;;;;10.70;4.18;;;12.70;99.90;;;;;;5095217;27;20523;-89
2024/04/02 11:43:40;;;;;;;9.65;4.30;;;12.70;99.90;;;;;;5090984;27;20039;-87
2024/04/02 11:46:05;;;;;;;9.85;4.22;;;12.90;99.90;;;;;;5100933;27;20831;-91
2024/04/02 11:48:31;;;;;;;11.00;4.00;;;13.10;99.90;;;;;;5096719;27;21001;-90
2024/04/02 11:50:57;;;;;;;7.10;3.45;;;13.20;99.90;;;;;;5113887;27;20066;-90
2024/04/02 11:53:23;;;;;;;9.85;4.78;;;13.20;99.90;;;;;;5092317;27;20705;-88
2024/04/02 11:55:51;;;;;;;8.15;3.53;;;13.20;99.90;;;;;;5110118;27;20051;-90
2024/04/02 12:01:02;;;;;;;8.63;4.28;;;13.10;99.90;;;;;;5097548;27;20059;-88
2024/04/02 12:03:29;;;;;;;8.02;3.45;;;13.00;99.90;;;;;;5095429;28;20047;-90
2024/04/02 12:05:55;;;;;;;5.82;3.40;;;12.80;99.90;;;;;;5096278;27;20640;-89
2024/04/02 12:08:20;;;;;;;8.48;2.97;;;12.80;99.90;;;;;;5094973;28;20116;-87
2024/04/02 12:10:46;;;;;;;10.48;2.63;;;12.70;99.90;;;;;;5099119;27;20050;-89
2024/04/02 12:13:12;;;;;;;6.25;2.83;;;12.70;99.90;;;;;;5102741;27;20127;-90
2024/04/02 12:15:37;;;;;;;7.05;3.17;;;12.70;99.90;;;;;;5099477;27;20046;-89
2024/04/02 12:18:03;;;;;;;7.65;3.00;;;12.70;99.90;;;;;;5112930;27;20135;-88
2024/04/02 12:20:28;;;;;;;8.68;3.08;;;12.80;99.90;;;;;;5095765;27;20063;-88
2024/04/02 12:22:54;;;;;;;6.95;2.90;;;12.80;99.90;;;;;;5092627;28;20865;-90
2024/04/02 12:25:21;;;;;;;8.13;2.83;;;12.80;99.90;;;;;;5100610;27;20043;-88
2024/04/02 12:27:47;;;;;;;6.30;2.58;;;12.80;99.90;;;;;;5119557;27;20095;-90
2024/04/02 12:30:13;;;;;;;9.10;2.92;;;12.90;99.90;;;;;;5099048;28;20715;-89
2024/04/02 12:32:41;;;;;;;10.20;2.75;;;12.90;99.90;;;;;;5103682;28;20627;-89
2024/04/02 12:35:07;;;;;;;7.55;2.50;;;12.90;99.90;;;;;;5083345;27;20036;-86
2024/04/02 12:37:33;;;;;;;6.63;2.20;;;12.90;99.90;;;;;;5108464;27;20103;-88
2024/04/02 12:39:58;;;;;;;9.40;2.63;;;13.00;99.90;;;;;;5103057;27;20043;-90
2024/04/02 12:42:24;;;;;;;5.88;1.90;;;12.90;99.90;;;;;;5104132;27;20047;-90
2024/04/02 12:44:50;;;;;;;6.35;2.47;;;13.00;99.90;;;;;;5104819;27;20031;-91